Time;durP1;ratioP1;P1;durP2;ratioP2;P2;SDS_P1;SDS_P2;PMS_P1;PMS_P2;Temp;Humidity;BMP_temperature;BMP_pressure;BME280_temperature;BME280_humidity;BME280_pressure;Samples;Min_cycle;Max_cycle;Signal;HPM_P1;HPM_P2
2022/04/27 00:01:15;;;;;;;0.10;0.10;;;;;;;10.86;55.68;102540.94;5068753;28;20120;-77
2022/04/27 00:03:42;;;;;;;0.10;0.10;;;;;;;10.82;56.57;102539.16;5064734;28;20040;-78
2022/04/27 00:06:09;;;;;;;0.10;0.10;;;;;;;10.78;56.05;102538.22;5065462;28;20028;-78
2022/04/27 00:08:35;;;;;;;0.10;0.10;;;;;;;10.76;56.77;102534.69;5063855;28;20052;-78
2022/04/27 00:11:01;;;;;;;0.10;0.10;;;;;;;10.73;55.89;102528.47;5064379;28;20048;-79
2022/04/27 00:13:27;;;;;;;0.10;0.10;;;;;;;10.68;56.45;102537.28;5064092;28;20037;-78
2022/04/27 00:15:53;;;;;;;0.10;0.10;;;;;;;10.67;56.07;102535.50;5058002;28;20029;-78
2022/04/27 00:18:20;;;;;;;0.10;0.10;;;;;;;10.68;55.91;102531.09;5062178;28;20073;-79
2022/04/27 00:20:46;;;;;;;0.10;0.10;;;;;;;10.67;55.77;102535.50;5066256;28;20017;-78
2022/04/27 00:23:13;;;;;;;0.10;0.10;;;;;;;10.63;56.45;102528.41;5063570;28;20487;-78
2022/04/27 00:25:39;;;;;;;0.10;0.10;;;;;;;10.60;56.00;102530.16;5064376;28;20037;-78
2022/04/27 00:28:06;;;;;;;0.00;0.00;;;;;;;10.56;56.00;102531.91;5059401;28;20028;-77
2022/04/27 00:30:32;;;;;;;0.10;0.10;;;;;;;10.55;55.59;102532.75;5061626;28;20064;-79
2022/04/27 00:33:01;;;;;;;0.10;0.10;;;;;;;10.57;56.28;102533.69;5063703;28;20089;-78
2022/04/27 00:35:27;;;;;;;0.10;0.10;;;;;;;10.51;56.25;102534.50;5062557;28;20040;-79
2022/04/27 00:37:53;;;;;;;0.03;0.03;;;;;;;10.49;57.61;102541.56;5062860;28;20040;-79
2022/04/27 00:40:20;;;;;;;0.10;0.10;;;;;;;10.47;57.64;102540.66;5063602;28;20029;-78
2022/04/27 00:42:46;;;;;;;0.10;0.10;;;;;;;10.43;56.85;102540.63;5059290;28;20036;-78
2022/04/27 00:45:12;;;;;;;0.10;0.10;;;;;;;10.40;56.89;102536.19;5062780;28;20041;-78
2022/04/27 00:47:38;;;;;;;0.10;0.10;;;;;;;10.38;57.11;102535.31;5061005;28;20070;-78
2022/04/27 00:50:04;;;;;;;0.10;0.10;;;;;;;10.36;57.71;102535.28;5062775;28;20390;-78
2022/04/27 00:52:32;;;;;;;0.10;0.10;;;;;;;10.34;56.70;102537.00;5061401;28;20029;-78
2022/04/27 00:54:58;;;;;;;0.10;0.10;;;;;;;10.31;56.05;102546.69;5062386;28;20029;-78
2022/04/27 00:57:25;;;;;;;0.10;0.10;;;;;;;10.26;57.08;102544.00;5060348;28;20041;-79
2022/04/27 00:59:53;;;;;;;0.10;0.10;;;;;;;10.23;57.69;102543.06;5064202;28;20032;-79
2022/04/27 01:02:20;;;;;;;0.10;0.10;;;;;;;10.20;56.08;102549.25;5071133;28;20051;-79
2022/04/27 01:04:47;;;;;;;0.22;0.22;;;;;;;10.20;56.19;102544.84;5064971;28;20029;-79
2022/04/27 01:07:13;;;;;;;0.05;0.05;;;;;;;10.21;56.66;102540.41;5061996;28;20029;-79
2022/04/27 01:09:40;;;;;;;0.20;0.20;;;;;;;10.20;56.39;102536.91;5062227;28;20048;-79
2022/04/27 01:12:07;;;;;;;1.17;0.70;;;;;;;10.20;56.36;102536.91;5060474;28;20025;-77
2022/04/27 01:14:48;;;;;;;0.10;0.10;;;;;;;10.29;56.40;102541.38;5065495;28;20032;-77
2022/04/27 01:17:15;;;;;;;0.10;0.10;;;;;;;10.24;56.52;102545.72;5065303;28;20105;-78
2022/04/27 01:19:41;;;;;;;0.10;0.10;;;;;;;10.24;56.74;102547.50;5059102;28;20560;-78
2022/04/27 01:22:08;;;;;;;0.10;0.10;;;;;;;10.23;56.22;102545.72;5057483;28;20044;-78
2022/04/27 01:24:35;;;;;;;0.10;0.10;;;;;;;10.23;56.46;102553.66;5058676;28;20074;-78
2022/04/27 01:27:01;;;;;;;0.00;0.00;;;;;;;10.23;56.97;102549.28;5060308;28;20024;-78
2022/04/27 01:29:28;;;;;;;0.10;0.10;;;;;;;10.25;57.05;102546.63;5062393;28;20033;-77
2022/04/27 01:31:54;;;;;;;0.10;0.10;;;;;;;10.25;56.69;102551.94;5061056;28;20036;-78
2022/04/27 01:34:20;;;;;;;0.00;0.00;;;;;;;10.25;56.79;102546.63;5059485;28;20029;-78
2022/04/27 01:36:47;;;;;;;0.10;0.10;;;;;;;10.23;56.80;102541.34;5056137;28;20041;-78
2022/04/27 01:39:13;;;;;;;0.10;0.10;;;;;;;10.19;57.27;102547.47;5056015;28;20039;-78
2022/04/27 01:41:40;;;;;;;0.10;0.10;;;;;;;10.16;57.60;102548.31;5056717;28;20032;-78
2022/04/27 01:44:06;;;;;;;0.10;0.10;;;;;;;10.15;56.63;102548.31;5057091;28;20059;-77
2022/04/27 01:46:32;;;;;;;0.10;0.10;;;;;;;10.12;57.60;102548.25;5063344;28;20051;-79
2022/04/27 01:49:00;;;;;;;0.10;0.10;;;;;;;10.12;57.34;102556.22;5061209;28;20032;-78
2022/04/27 01:54:15;;;;;;;0.10;0.10;;;;;;;10.07;57.03;102569.44;5060081;28;20562;-79
2022/04/27 01:56:42;;;;;;;0.10;0.10;;;;;;;10.03;57.69;102567.59;5061331;28;20082;-78
2022/04/27 01:59:09;;;;;;;0.10;0.10;;;;;;;10.01;57.04;102572.03;5059161;28;20446;-78
2022/04/27 02:01:35;;;;;;;0.10;0.10;;;;;;;9.98;56.51;102564.94;5051676;28;20100;-78
2022/04/27 02:04:01;;;;;;;0.10;0.10;;;;;;;9.97;57.63;102565.81;5061699;28;20494;-78
2022/04/27 02:06:29;;;;;;;1.33;1.33;;;;;;;9.98;58.10;102570.22;5061076;28;20033;-78
2022/04/27 02:08:55;;;;;;;0.00;0.00;;;;;;;9.99;57.32;102574.66;5058588;28;20113;-78
2022/04/27 02:11:24;;;;;;;0.10;0.10;;;;;;;9.99;58.19;102577.31;5056441;28;20028;-79
2022/04/27 02:13:54;;;;;;;0.10;0.10;;;;;;;10.01;58.07;102574.66;5063745;28;20017;-77
2022/04/27 02:16:23;;;;;;;0.10;0.10;;;;;;;10.02;58.42;102581.75;5065439;28;20029;-77
2022/04/27 02:18:49;;;;;;;0.10;0.10;;;;;;;10.02;58.13;102576.44;5062282;28;20033;-78
2022/04/27 02:21:16;;;;;;;0.10;0.10;;;;;;;10.01;57.69;102580.84;5062693;28;20056;-77
2022/04/27 02:23:44;;;;;;;0.10;0.10;;;;;;;10.01;58.65;102585.25;5061762;28;20033;-77
2022/04/27 02:26:11;;;;;;;0.08;0.08;;;;;;;10.01;58.33;102579.97;5062587;28;20033;-78
2022/04/27 02:28:37;;;;;;;0.28;0.28;;;;;;;9.99;57.49;102577.31;5062145;28;20083;-77
2022/04/27 02:31:03;;;;;;;0.10;0.10;;;;;;;9.99;58.14;102589.66;5059019;28;20036;-77
2022/04/27 02:33:30;;;;;;;0.10;0.10;;;;;;;9.98;58.91;102586.13;5061137;28;20040;-78
2022/04/27 02:35:57;;;;;;;0.20;0.20;;;;;;;9.96;59.49;102589.63;5062434;28;20108;-78
2022/04/27 02:38:23;;;;;;;0.68;0.20;;;;;;;9.93;57.74;102586.94;5060725;28;20041;-76
2022/04/27 02:40:49;;;;;;;0.10;0.10;;;;;;;9.89;58.55;102580.72;5060360;28;20021;-77
2022/04/27 02:43:16;;;;;;;0.10;0.10;;;;;;;9.89;58.32;102588.66;5068539;28;20072;-74
2022/04/27 02:45:43;;;;;;;0.10;0.10;;;;;;;9.88;58.72;102585.13;5069913;28;20021;-75
2022/04/27 02:48:10;;;;;;;0.10;0.10;;;;;;;9.87;58.20;102586.00;5067521;28;20047;-77
2022/04/27 02:53:24;;;;;;;0.10;0.10;;;;;;;9.86;58.13;102593.94;5069383;28;20037;-75
2022/04/27 02:55:50;;;;;;;0.10;0.10;;;;;;;9.85;58.50;102584.22;5061001;28;20055;-77
2022/04/27 02:58:16;;;;;;;0.17;0.17;;;;;;;9.85;58.33;102592.16;5067257;28;20120;-77
2022/04/27 03:00:44;;;;;;;2.40;1.10;;;;;;;9.86;59.14;102596.56;5063824;28;20040;-78
2022/04/27 03:03:11;;;;;;;0.10;0.10;;;;;;;9.90;58.79;102595.72;5063829;28;20032;-77
2022/04/27 03:05:37;;;;;;;0.10;0.10;;;;;;;9.90;59.12;102598.38;5063119;28;20033;-77
2022/04/27 03:08:04;;;;;;;0.30;0.30;;;;;;;9.88;58.07;102589.50;5064139;28;20033;-77
2022/04/27 03:10:30;;;;;;;0.10;0.10;;;;;;;9.87;58.33;102598.34;5062469;28;20033;-75
2022/04/27 03:12:59;;;;;;;0.10;0.10;;;;;;;9.84;58.62;102598.31;5065095;28;20031;-78
2022/04/27 03:15:25;;;;;;;0.10;0.10;;;;;;;9.81;58.55;102603.59;5063915;28;20032;-77
2022/04/27 03:18:17;;;;;;;0.10;0.10;;;;;;;9.79;58.10;102606.19;5064261;28;20021;-77
2022/04/27 03:20:37;;;;;;;0.10;0.10;;;;;;;9.79;58.49;102600.03;5063801;28;20048;-78
2022/04/27 03:23:03;;;;;;;0.10;0.10;;;;;;;9.79;59.08;102605.31;5064149;28;20068;-78
2022/04/27 03:25:29;;;;;;;0.10;0.10;;;;;;;9.78;59.03;102599.16;5062489;28;20021;-78
2022/04/27 03:27:55;;;;;;;0.10;0.10;;;;;;;9.80;58.82;102591.22;5066034;28;20043;-78
2022/04/27 03:30:22;;;;;;;1.73;1.65;;;;;;;9.82;58.58;102594.75;5076681;28;20040;-78
2022/04/27 03:32:48;;;;;;;0.10;0.10;;;;;;;9.82;58.56;102600.03;5065096;28;20032;-78
2022/04/27 03:35:14;;;;;;;0.10;0.10;;;;;;;9.81;57.95;102603.59;5063959;28;20036;-75
2022/04/27 03:37:40;;;;;;;0.10;0.10;;;;;;;9.78;58.79;102598.22;5065281;28;20063;-78
2022/04/27 03:40:09;;;;;;;0.00;0.00;;;;;;;9.77;59.76;102597.38;5066123;28;20017;-77
2022/04/27 03:42:35;;;;;;;0.10;0.10;;;;;;;9.76;58.63;102594.66;5066117;28;20482;-78
2022/04/27 03:45:01;;;;;;;0.10;0.10;;;;;;;9.74;58.70;102597.31;5068117;28;20029;-78
2022/04/27 03:47:27;;;;;;;0.10;0.10;;;;;;;9.73;58.48;102598.19;5066792;28;20033;-78
2022/04/27 03:49:55;;;;;;;0.03;0.03;;;;;;;9.70;58.48;102593.72;5066624;28;20091;-78
2022/04/27 03:52:21;;;;;;;0.10;0.10;;;;;;;9.65;58.90;102602.50;5066006;28;20016;-76
2022/04/27 03:54:47;;;;;;;0.10;0.10;;;;;;;9.60;58.22;102601.56;5065353;28;20789;-77
2022/04/27 03:57:13;;;;;;;0.05;0.05;;;;;;;9.55;58.73;102607.66;5066818;28;20029;-77
2022/04/27 03:59:39;;;;;;;0.10;0.10;;;;;;;9.51;58.18;102605.00;5060731;28;20040;-77
2022/04/27 04:02:06;;;;;;;0.10;0.10;;;;;;;9.45;58.08;102605.78;5056638;28;20040;-77
2022/04/27 04:04:32;;;;;;;0.10;0.10;;;;;;;9.41;58.89;102603.97;5058707;28;20038;-78
2022/04/27 04:06:59;;;;;;;0.10;0.10;;;;;;;9.37;58.26;102604.78;5064715;28;20082;-77
2022/04/27 04:09:25;;;;;;;0.10;0.10;;;;;;;9.33;58.81;102606.53;5067183;28;20086;-78
2022/04/27 04:11:51;;;;;;;0.80;0.75;;;;;;;9.33;58.61;102608.25;5066043;28;20033;-78
2022/04/27 04:14:17;;;;;;;0.10;0.10;;;;;;;9.30;58.60;102603.81;5064812;28;20599;-78
2022/04/27 04:16:43;;;;;;;0.15;0.15;;;;;;;9.29;58.69;102609.97;5066867;28;20040;-76
2022/04/27 04:19:10;;;;;;;0.10;0.10;;;;;;;9.28;58.81;102602.91;5068695;28;20040;-76
2022/04/27 04:21:36;;;;;;;0.10;0.10;;;;;;;9.26;59.70;102609.94;5065203;28;20380;-77
2022/04/27 04:24:02;;;;;;;0.10;0.10;;;;;;;9.26;60.05;102609.94;5064821;28;20032;-78
2022/04/27 04:29:14;;;;;;;0.10;0.10;;;;;;;9.25;61.46;102621.38;5065783;28;20037;-78
2022/04/27 04:31:40;;;;;;;0.10;0.10;;;;;;;9.24;60.23;102616.97;5064632;28;20105;-77
2022/04/27 04:34:06;;;;;;;0.10;0.10;;;;;;;9.25;60.92;102623.16;5067182;28;20037;-78
2022/04/27 04:36:32;;;;;;;0.10;0.10;;;;;;;9.22;61.19;102619.59;5066321;28;20021;-77
2022/04/27 04:38:59;;;;;;;2.47;0.55;;;;;;;9.21;60.57;102627.50;5066997;28;20025;-78
2022/04/27 04:41:25;;;;;;;0.10;0.10;;;;;;;9.21;60.64;102641.63;5065971;28;20024;-78
2022/04/27 04:43:51;;;;;;;0.08;0.08;;;;;;;9.21;59.20;102635.44;5066570;28;20033;-78
2022/04/27 04:46:17;;;;;;;0.10;0.10;;;;;;;9.25;59.47;102633.75;5065919;28;20029;-78
2022/04/27 04:48:43;;;;;;;0.10;0.10;;;;;;;9.22;59.22;102638.09;5061954;28;20029;-78
2022/04/27 04:51:09;;;;;;;0.10;0.10;;;;;;;9.19;60.74;102635.41;5063232;28;20082;-77
2022/04/27 04:53:35;;;;;;;0.10;0.10;;;;;;;9.18;60.83;102640.69;5087422;22;20037;-75
2022/04/27 04:56:02;;;;;;;0.10;0.10;;;;;;;9.17;59.98;102642.44;5073535;28;20412;-77
2022/04/27 04:58:29;;;;;;;0.10;0.10;;;;;;;9.18;60.90;102653.91;5073370;28;20033;-76
2022/04/27 05:00:55;;;;;;;0.10;0.10;;;;;;;9.19;59.83;102656.56;5072274;28;20593;-76
2022/04/27 05:03:21;;;;;;;0.10;0.10;;;;;;;9.23;59.74;102660.16;5070125;28;20035;-76
2022/04/27 05:05:47;;;;;;;0.10;0.10;;;;;;;9.26;59.35;102662.84;5058459;28;20412;-76
2022/04/27 05:08:14;;;;;;;0.10;0.10;;;;;;;9.27;60.17;102664.63;5052073;28;20025;-76
2022/04/27 05:10:40;;;;;;;0.00;0.00;;;;;;;9.29;58.87;102662.88;5043313;28;20024;-76
2022/04/27 05:13:06;;;;;;;0.10;0.10;;;;;;;9.31;59.21;102670.81;5048368;28;20060;-76
2022/04/27 05:15:32;;;;;;;0.10;0.10;;;;;;;9.31;59.27;102674.38;5052224;28;20094;-76
2022/04/27 05:17:58;;;;;;;0.10;0.10;;;;;;;9.30;60.22;102680.53;5052757;28;20028;-76
2022/04/27 05:20:24;;;;;;;0.57;0.57;;;;;;;9.31;58.88;102682.31;5053225;28;20449;-76
2022/04/27 05:22:50;;;;;;;0.10;0.10;;;;;;;9.33;58.90;102684.97;5052304;28;20678;-76
2022/04/27 05:25:18;;;;;;;0.10;0.10;;;;;;;9.34;61.07;102681.47;5052437;28;20067;-76
2022/04/27 05:27:44;;;;;;;0.15;0.15;;;;;;;9.38;60.72;102678.00;5051857;28;20075;-76
2022/04/27 05:32:57;;;;;;;0.08;0.08;;;;;;;9.47;62.36;102693.09;5036838;28;20076;-76
2022/04/27 05:35:23;;;;;;;0.25;0.25;;;;;;;9.51;60.92;102690.53;5052756;28;20093;-75
2022/04/27 05:37:49;;;;;;;0.80;0.80;;;;;;;9.55;61.12;102702.06;5055234;28;20036;-76
2022/04/27 05:40:15;;;;;;;0.10;0.10;;;;;;;9.61;60.42;102694.22;5032320;28;20025;-76
2022/04/27 05:42:41;;;;;;;0.10;0.10;;;;;;;9.65;61.08;102698.66;5051064;28;20033;-75
2022/04/27 05:45:08;;;;;;;0.00;0.00;;;;;;;9.67;61.75;102707.53;5052551;28;20477;-76
2022/04/27 05:47:34;;;;;;;0.00;0.00;;;;;;;9.71;61.77;102704.03;5059023;28;20178;-75
2022/04/27 05:50:01;;;;;;;0.10;0.10;;;;;;;9.77;61.44;102703.25;5055395;28;20025;-76
2022/04/27 05:52:27;;;;;;;0.10;0.10;;;;;;;9.80;62.25;102708.56;5057392;28;20041;-76
2022/04/27 05:54:53;;;;;;;0.10;0.10;;;;;;;9.84;62.35;102710.41;5051015;28;20114;-76
2022/04/27 05:57:19;;;;;;;0.08;0.08;;;;;;;9.88;62.27;102706.94;5043103;28;20024;-76
2022/04/27 05:59:47;;;;;;;0.10;0.10;;;;;;;9.94;62.11;102713.16;5053035;28;20091;-75
2022/04/27 06:02:14;;;;;;;0.10;0.10;;;;;;;9.96;62.11;102720.25;5054085;28;20029;-76
2022/04/27 06:04:40;;;;;;;0.20;0.20;;;;;;;10.00;62.05;102721.19;5050270;28;20035;-76
2022/04/27 06:07:07;;;;;;;0.10;0.10;;;;;;;10.05;62.43;102719.47;5050647;28;20056;-75
2022/04/27 06:09:34;;;;;;;0.10;0.10;;;;;;;10.12;62.36;102723.06;5060502;28;20078;-76
2022/04/27 06:12:00;;;;;;;0.10;0.10;;;;;;;10.20;61.40;102726.72;5053802;28;20028;-76
2022/04/27 06:14:27;;;;;;;0.10;0.10;;;;;;;10.27;61.75;102727.66;5052153;28;20060;-76
2022/04/27 06:16:53;;;;;;;0.10;0.10;;;;;;;10.33;61.76;102725.09;5057061;28;20056;-76
2022/04/27 06:19:19;;;;;;;1.17;1.10;;;;;;;10.42;61.85;102726.97;5046725;28;20091;-76
2022/04/27 06:21:45;;;;;;;0.10;0.10;;;;;;;10.48;61.71;102727.06;5054405;28;20043;-76
2022/04/27 06:24:11;;;;;;;0.10;0.10;;;;;;;10.52;61.78;102732.41;5086568;28;20012;-75
2022/04/27 06:26:37;;;;;;;0.43;0.40;;;;;;;10.61;61.74;102728.09;5085812;28;20049;-75
2022/04/27 06:29:03;;;;;;;0.10;0.10;;;;;;;10.69;61.65;102723.72;5066431;28;20040;-76
2022/04/27 06:31:30;;;;;;;0.00;0.00;;;;;;;10.78;61.01;102733.53;5061471;28;20108;-76
2022/04/27 06:33:57;;;;;;;0.20;0.20;;;;;;;10.84;60.79;102728.28;5064862;28;20032;-76
2022/04/27 06:36:23;;;;;;;0.40;0.40;;;;;;;10.93;60.64;102739.00;5052014;28;20100;-76
2022/04/27 06:38:50;;;;;;;0.10;0.10;;;;;;;11.00;60.57;102735.53;5049045;28;20451;-76
2022/04/27 06:41:16;;;;;;;0.10;0.10;;;;;;;11.11;60.73;102737.38;5061671;28;20021;-76
2022/04/27 06:43:42;;;;;;;0.10;0.10;;;;;;;11.19;60.61;102738.34;5056472;28;20033;-76
2022/04/27 06:46:08;;;;;;;0.00;0.00;;;;;;;11.31;61.80;102740.19;5060037;28;21460;-76
2022/04/27 06:48:35;;;;;;;0.30;0.30;;;;;;;11.42;61.25;102745.56;5060166;28;20512;-77
2022/04/27 06:51:01;;;;;;;0.10;0.10;;;;;;;11.50;61.03;102746.50;5052514;28;20329;-76
2022/04/27 06:53:27;;;;;;;0.00;0.00;;;;;;;11.63;60.04;102745.72;5053212;28;20041;-76
2022/04/27 06:55:53;;;;;;;0.00;0.00;;;;;;;11.73;60.39;102748.44;5062688;28;20115;-76
2022/04/27 06:58:19;;;;;;;0.25;0.25;;;;;;;11.87;59.67;102751.16;5060162;28;20033;-76
2022/04/27 07:00:45;;;;;;;0.00;0.00;;;;;;;11.99;59.94;102751.25;5050514;28;20025;-76
2022/04/27 07:03:11;;;;;;;0.70;0.70;;;;;;;12.16;59.67;102753.97;5052161;28;20068;-76
2022/04/27 07:05:38;;;;;;;31.27;1.45;;;;;;;12.32;59.19;102756.69;5054532;28;20044;-76
2022/04/27 07:08:06;;;;;;;0.10;0.10;;;;;;;12.47;58.93;102762.06;5055352;28;20050;-75
2022/04/27 07:10:36;;;;;;;0.00;0.00;;;;;;;12.64;59.05;102758.56;5052774;28;20037;-76
2022/04/27 07:13:04;;;;;;;0.63;0.63;;;;;;;12.77;58.34;102763.00;5050966;28;20039;-76
2022/04/27 07:15:30;;;;;;;0.10;0.10;;;;;;;12.84;58.62;102763.91;5051990;28;20029;-75
2022/04/27 07:17:56;;;;;;;0.10;0.10;;;;;;;12.95;58.70;102765.69;5053168;28;20463;-76
2022/04/27 07:20:22;;;;;;;0.03;0.03;;;;;;;13.09;58.33;102768.34;5068261;28;20613;-76
2022/04/27 07:22:48;;;;;;;0.15;0.15;;;;;;;13.21;57.51;102772.81;5065925;28;20531;-76
2022/04/27 07:25:18;;;;;;;0.10;0.10;;;;;;;13.30;57.39;102776.38;5057629;28;20111;-77
2022/04/27 07:27:44;;;;;;;0.17;0.10;;;;;;;13.36;57.12;102773.69;5047215;28;20057;-76
2022/04/27 07:30:10;;;;;;;0.00;0.00;;;;;;;13.43;57.04;102775.47;5068102;28;20028;-76
2022/04/27 07:32:36;;;;;;;0.10;0.10;;;;;;;13.55;56.82;102782.59;5057450;28;20041;-76
2022/04/27 07:35:03;;;;;;;0.10;0.10;;;;;;;13.59;56.33;102776.34;5047494;28;20025;-76
2022/04/27 07:37:29;;;;;;;0.90;0.40;;;;;;;13.69;55.68;102779.88;5056649;28;20068;-76
2022/04/27 07:39:55;;;;;;;0.03;0.03;;;;;;;13.79;56.17;102781.63;5063319;28;20032;-76
2022/04/27 07:42:21;;;;;;;0.22;0.22;;;;;;;13.93;56.27;102784.25;5050670;28;20037;-76
2022/04/27 07:44:47;;;;;;;0.10;0.10;;;;;;;14.05;54.76;102783.34;5054061;28;20041;-76
2022/04/27 07:47:15;;;;;;;0.03;0.03;;;;;;;14.19;54.68;102775.28;5051677;28;20033;-76
2022/04/27 07:49:41;;;;;;;0.00;0.00;;;;;;;14.28;53.96;102787.69;5055025;28;20551;-76
2022/04/27 07:52:07;;;;;;;0.00;0.00;;;;;;;14.36;54.47;102785.88;5057941;28;20492;-76
2022/04/27 07:54:34;;;;;;;0.00;0.00;;;;;;;14.45;53.21;102793.84;5069086;28;20075;-75
2022/04/27 07:57:00;;;;;;;0.75;0.75;;;;;;;14.48;53.32;102791.16;5070406;28;20519;-75
2022/04/27 07:59:26;;;;;;;0.00;0.00;;;;;;;14.51;53.28;102788.47;5068758;28;20027;-75
2022/04/27 08:01:52;;;;;;;0.20;0.20;;;;;;;14.57;53.40;102791.09;5073997;28;20036;-75
2022/04/27 08:04:18;;;;;;;0.10;0.10;;;;;;;14.63;52.37;102789.28;5075215;28;20028;-76
2022/04/27 08:06:44;;;;;;;0.00;0.00;;;;;;;14.73;52.16;102796.41;5078575;28;20032;-75
2022/04/27 08:09:10;;;;;;;0.10;0.10;;;;;;;14.88;52.58;102790.94;5054367;28;20025;-76
2022/04/27 08:11:39;;;;;;;0.10;0.10;;;;;;;14.99;51.02;102798.88;5052524;28;20071;-76
2022/04/27 08:14:06;;;;;;;0.10;0.10;;;;;;;15.13;50.74;102790.78;5051078;28;20086;-76
2022/04/27 08:16:32;;;;;;;0.00;0.00;;;;;;;15.30;51.90;102797.75;5053341;28;20024;-77
2022/04/27 08:18:58;;;;;;;0.10;0.10;;;;;;;15.40;50.30;102799.44;5047799;28;20025;-76
2022/04/27 08:21:27;;;;;;;0.20;0.20;;;;;;;15.50;49.77;102795.78;5057096;28;20033;-76
2022/04/27 08:23:53;;;;;;;0.22;0.22;;;;;;;15.62;49.50;102793.91;5053360;28;20033;-76
2022/04/27 08:26:20;;;;;;;2.60;1.42;;;;;;;15.72;48.39;102800.91;5040274;28;20028;-75
2022/04/27 08:28:46;;;;;;;0.00;0.00;;;;;;;15.86;45.78;102806.16;5045200;28;20052;-75
2022/04/27 08:31:14;;;;;;;0.00;0.00;;;;;;;16.01;46.95;102807.75;5053904;28;20028;-76
2022/04/27 08:33:43;;;;;;;0.00;0.00;;;;;;;16.15;43.87;102800.47;5053127;28;20424;-76
2022/04/27 08:36:09;;;;;;;0.00;0.00;;;;;;;16.20;41.47;102807.56;5052915;28;20086;-76
2022/04/27 08:38:37;;;;;;;0.10;0.10;;;;;;;16.30;45.09;102801.19;5053222;28;20576;-76
2022/04/27 08:41:03;;;;;;;0.10;0.10;;;;;;;16.45;46.54;102802.78;5043478;28;20041;-75
2022/04/27 08:43:29;;;;;;;0.10;0.10;;;;;;;16.51;42.63;102802.72;5042354;28;20504;-76
2022/04/27 08:46:00;;;;;;;0.00;0.00;;;;;;;16.69;44.52;102801.56;5049326;28;20112;-75
2022/04/27 08:48:28;;;;;;;0.00;0.00;;;;;;;16.81;43.31;102811.22;5052063;28;20086;-75
2022/04/27 08:50:54;;;;;;;0.00;0.00;;;;;;;16.91;44.45;102811.94;5050340;28;20461;-75
2022/04/27 08:53:21;;;;;;;0.03;0.03;;;;;;;16.90;41.56;102813.75;5056762;28;20033;-75
2022/04/27 08:55:47;;;;;;;0.10;0.10;;;;;;;16.98;43.56;102809.19;5071761;28;20420;-75
2022/04/27 09:00:50;;;;;;;0.00;0.00;;;;;;;16.81;43.28;102820.13;5106809;27;20457;-75
2022/04/27 09:03:36;;;;;;;0.20;0.20;;;;;;;17.05;41.19;102811.78;5088800;28;20032;-75
2022/04/27 09:06:06;;;;;;;0.10;0.10;;;;;;;17.02;39.79;102820.72;5065885;28;20115;-76
2022/04/27 09:08:43;;;;;;;0.13;0.13;;;;;;;17.13;41.68;102818.78;5067791;28;20043;-76
2022/04/27 09:13:58;;;;;;;0.00;0.00;;;;;;;17.11;41.93;102825.94;5116727;27;20739;-75
2022/04/27 09:20:46;;;;;;;0.10;0.10;;;;;;;17.05;37.68;102828.72;5084704;28;20028;-75
2022/04/27 09:22:02;;;;;;;0.00;0.00;;;;;;;16.98;40.84;102835.06;5085284;28;20028;-75
2022/04/27 09:24:45;;;;;;;0.00;0.00;;;;;;;16.93;40.63;102831.56;5082561;28;20029;-75
2022/04/27 09:30:01;;;;;;;0.22;0.22;;;;;;;16.97;40.97;102822.59;5143016;27;20121;-76
2022/04/27 09:32:28;;;;;;;0.00;0.00;;;;;;;16.97;40.11;102822.59;5107973;28;20503;-75
2022/04/27 09:34:55;;;;;;;0.10;0.10;;;;;;;16.95;38.85;102829.78;5090656;28;20043;-75
2022/04/27 09:37:24;;;;;;;0.00;0.00;;;;;;;16.96;39.84;102835.09;5079663;28;20108;-76
2022/04/27 09:40:08;;;;;;;0.00;0.00;;;;;;;17.05;40.14;102828.72;5087522;28;20051;-77
2022/04/27 09:42:37;;;;;;;0.10;0.10;;;;;;;17.02;40.19;102836.78;5088762;28;20074;-74
2022/04/27 09:45:23;;;;;;;0.10;0.10;;;;;;;17.11;40.00;102838.47;5107858;28;20055;-75
2022/04/27 09:50:26;;;;;;;0.10;0.10;;;;;;;17.11;39.94;102835.78;5135808;27;20125;-75
2022/04/27 09:52:56;;;;;;;0.05;0.05;;;;;;;17.12;39.65;102846.47;5100612;28;20457;-75
2022/04/27 09:55:25;;;;;;;0.05;0.05;;;;;;;17.16;39.77;102839.28;5099081;28;20110;-75
2022/04/27 09:57:56;;;;;;;0.08;0.08;;;;;;;17.22;40.19;102831.13;5079251;28;20031;-75
2022/04/27 10:00:25;;;;;;;0.00;0.00;;;;;;;17.28;39.80;102838.16;5075636;28;20427;-74
2022/04/27 10:02:52;;;;;;;0.03;0.03;;;;;;;17.32;39.24;102837.22;5081877;28;20541;-75
2022/04/27 10:05:22;;;;;;;0.00;0.00;;;;;;;17.37;38.86;102835.34;5092644;28;20032;-76
2022/04/27 10:07:50;;;;;;;0.10;0.10;;;;;;;17.33;39.34;102835.44;5086939;28;20442;-75
2022/04/27 10:10:17;;;;;;;0.00;0.00;;;;;;;17.33;38.87;102838.97;5099925;28;20473;-75
2022/04/27 10:12:44;;;;;;;0.10;0.10;;;;;;;17.31;38.77;102835.47;5094931;28;20548;-75
2022/04/27 10:15:10;;;;;;;0.98;0.98;;;;;;;17.33;39.70;102830.94;5096911;28;20040;-75
2022/04/27 10:17:36;;;;;;;0.17;0.17;;;;;;;17.34;39.21;102832.72;5091341;28;20115;-75
2022/04/27 10:23:31;;;;;;;0.10;0.10;;;;;;;17.46;39.33;102835.19;5065765;28;20210;-74
2022/04/27 10:26:27;;;;;;;0.13;0.13;;;;;;;17.53;39.45;102837.75;5025595;28;20033;-75
2022/04/27 10:28:57;;;;;;;0.00;0.00;;;;;;;17.45;39.37;102829.88;5021891;28;20048;-75
2022/04/27 10:34:22;;;;;;;0.10;0.10;;;;;;;17.33;38.77;102830.06;5108044;27;20129;-75
2022/04/27 10:36:50;;;;;;;0.15;0.15;;;;;;;17.29;38.75;102834.59;5030034;28;20030;-76
2022/04/27 10:39:19;;;;;;;0.10;0.10;;;;;;;17.31;39.50;102835.47;5002271;28;20030;-76
2022/04/27 10:47:35;;;;;;;0.20;0.20;;;;;;;17.27;38.42;102836.41;5114013;27;20189;-77
2022/04/27 10:50:19;;;;;;;0.10;0.10;;;;;;;17.33;38.50;102835.44;5081818;28;20665;-75
2022/04/27 10:53:03;;;;;;;0.32;0.32;;;;;;;17.28;37.92;102835.50;5089357;28;20491;-75
2022/04/27 10:58:32;;;;;;;0.00;0.00;;;;;;;17.62;38.59;102837.63;5139704;27;20206;-79
2022/04/27 11:03:35;;;;;;;0.00;0.00;;;;;;;17.99;38.33;102839.63;5127702;27;20129;-79
2022/04/27 11:06:11;;;;;;;0.00;0.00;;;;;;;18.24;37.60;102836.47;5102264;28;20039;-78
2022/04/27 11:11:15;;;;;;;0.10;0.10;;;;;;;18.14;37.71;102845.63;5138490;27;20759;-77
2022/04/27 11:13:42;;;;;;;0.00;0.00;;;;;;;18.41;36.55;102833.44;5124505;28;20193;-78
2022/04/27 11:18:57;;;;;;;0.10;0.10;;;;;;;18.74;37.10;102839.88;5111353;27;20450;-78
2022/04/27 11:21:29;;;;;;;26.30;0.98;;;;;;;18.83;35.95;102837.88;5100660;28;20028;-78
2022/04/27 11:23:59;;;;;;;;;;;;;;;18.96;36.29;102835.84;5102655;28;20048;-80
2022/04/27 11:26:26;;;;;;;0.00;0.00;;;;;;;18.83;35.23;102829.81;5104352;28;19918;-77
2022/04/27 11:28:54;;;;;;;0.08;0.08;;;;;;;18.89;35.26;102830.56;5102529;28;20028;-80
2022/04/27 11:31:20;;;;;;;0.10;0.10;;;;;;;18.87;36.07;102826.16;5099343;28;20107;-78
2022/04/27 11:33:47;;;;;;;0.08;0.08;;;;;;;18.84;34.77;102829.81;5101138;28;20028;-79
2022/04/27 11:38:56;;;;;;;0.10;0.10;;;;;;;18.76;36.29;102834.44;5059082;28;20407;-79
2022/04/27 11:41:24;;;;;;;0.20;0.20;;;;;;;18.72;35.90;102832.75;5058454;28;20068;-79
2022/04/27 11:43:54;;;;;;;0.10;0.10;;;;;;;18.69;36.42;102835.50;5059269;28;20483;-80
2022/04/27 11:46:20;;;;;;;0.00;0.00;;;;;;;18.72;36.29;102833.63;5056200;28;20028;-79
2022/04/27 11:48:49;;;;;;;0.00;0.00;;;;;;;18.67;36.14;102835.53;5060103;28;20174;-82
2022/04/27 11:51:18;;;;;;;0.00;0.00;;;;;;;18.59;35.59;102837.50;5057116;28;20033;-80
2022/04/27 11:53:47;;;;;;;0.00;0.00;;;;;;;18.48;35.82;102836.84;5038936;28;20034;-81
2022/04/27 11:56:16;;;;;;;0.00;0.00;;;;;;;18.42;35.71;102841.44;5040406;28;20029;-79
2022/04/27 11:58:45;;;;;;;0.05;0.05;;;;;;;18.32;35.36;102839.88;5050026;28;20021;-78
2022/04/27 12:01:20;;;;;;;0.10;0.10;;;;;;;18.34;35.86;102837.16;5056342;28;20034;-80
2022/04/27 12:03:49;;;;;;;0.10;0.10;;;;;;;18.29;36.41;102839.91;5057322;28;20518;-82
2022/04/27 12:06:19;;;;;;;0.00;0.00;;;;;;;18.48;36.16;102834.16;5052093;28;20021;-83
2022/04/27 12:08:45;;;;;;;0.10;0.10;;;;;;;18.48;35.94;102828.81;5057204;28;20093;-81
2022/04/27 12:11:22;;;;;;;0.10;0.10;;;;;;;18.58;35.92;102830.38;5058802;28;20033;-81
2022/04/27 12:13:51;;;;;;;0.00;0.00;;;;;;;18.59;35.27;102832.13;5057859;28;20279;-81
2022/04/27 12:16:18;;;;;;;0.25;0.25;;;;;;;18.68;35.36;102834.63;5043878;28;20017;-81
2022/04/27 12:18:52;;;;;;;0.10;0.10;;;;;;;18.80;35.88;102840.63;5046112;28;20045;-80
2022/04/27 12:21:20;;;;;;;0.10;0.10;;;;;;;18.83;35.69;102835.19;5050941;28;20033;-79